Terminal Aerodrome Forecast
Issued by NWS Portland, OR

Home | Current Version | Previous Version | Text Only | Print | Product List | Glossary On
Versions: 1 2 3 4 5 6 7 8 9 10 11 12 13 14 15 16 17 18 19 20 21 22 23 24 25 26 27 28
000
FTUS46 KPQR 152336
TAFAST
TAF
KAST 152336Z 1600/1624 22011KT P6SM BKN006
     FM160300 20008KT 4SM BR OVC005
     FM161000 17003KT P6SM OVC008
     FM161800 19006KT P6SM OVC011=

USA.gov is the U.S. government's official web portal to all federal, state and local government web resources and services.